sensor_id;sensor_type;location;lat;lon;timestamp;temperature;humidity
18823;DHT22;9540;51.550;7.980;2022-11-02T00:00:24;12.20;99.90
18823;DHT22;9540;51.550;7.980;2022-11-02T00:02:53;12.20;99.90
18823;DHT22;9540;51.550;7.980;2022-11-02T00:05:21;12.20;99.90
18823;DHT22;9540;51.550;7.980;2022-11-02T00:07:49;12.20;99.90
18823;DHT22;9540;51.550;7.980;2022-11-02T00:10:17;12.20;99.90
18823;DHT22;9540;51.550;7.980;2022-11-02T00:12:54;12.20;99.90
18823;DHT22;9540;51.550;7.980;2022-11-02T00:15:27;12.30;99.90
18823;DHT22;9540;51.550;7.980;2022-11-02T00:17:59;12.40;99.90
18823;DHT22;9540;51.550;7.980;2022-11-02T00:20:34;12.50;99.90
18823;DHT22;9540;51.550;7.980;2022-11-02T00:23:09;12.50;99.90
18823;DHT22;9540;51.550;7.980;2022-11-02T00:25:38;12.50;99.90
18823;DHT22;9540;51.550;7.980;2022-11-02T00:28:07;12.60;99.90
18823;DHT22;9540;51.550;7.980;2022-11-02T00:30:34;12.60;99.90
18823;DHT22;9540;51.550;7.980;2022-11-02T00:33:02;12.70;99.90
18823;DHT22;9540;51.550;7.980;2022-11-02T00:35:39;12.90;99.90
18823;DHT22;9540;51.550;7.980;2022-11-02T00:38:06;13.00;99.90
18823;DHT22;9540;51.550;7.980;2022-11-02T00:40:43;13.00;99.90
18823;DHT22;9540;51.550;7.980;2022-11-02T00:43:10;13.00;99.90
18823;DHT22;9540;51.550;7.980;2022-11-02T00:45:37;13.00;99.90
18823;DHT22;9540;51.550;7.980;2022-11-02T00:48:15;13.10;99.90
18823;DHT22;9540;51.550;7.980;2022-11-02T00:50:51;13.20;99.90
18823;DHT22;9540;51.550;7.980;2022-11-02T00:53:21;13.20;99.90
18823;DHT22;9540;51.550;7.980;2022-11-02T00:55:48;13.20;99.90
18823;DHT22;9540;51.550;7.980;2022-11-02T00:58:16;13.30;99.90
18823;DHT22;9540;51.550;7.980;2022-11-02T01:00:45;13.20;99.90
18823;DHT22;9540;51.550;7.980;2022-11-02T01:03:12;13.20;99.90
18823;DHT22;9540;51.550;7.980;2022-11-02T01:05:41;13.20;99.90
18823;DHT22;9540;51.550;7.980;2022-11-02T01:08:08;13.20;99.90
18823;DHT22;9540;51.550;7.980;2022-11-02T01:10:35;13.30;99.90
18823;DHT22;9540;51.550;7.980;2022-11-02T01:13:02;13.30;99.90
18823;DHT22;9540;51.550;7.980;2022-11-02T01:15:29;13.30;99.90
18823;DHT22;9540;51.550;7.980;2022-11-02T01:17:56;13.10;99.90
18823;DHT22;9540;51.550;7.980;2022-11-02T01:20:24;12.90;99.90
18823;DHT22;9540;51.550;7.980;2022-11-02T01:22:52;12.60;99.90
18823;DHT22;9540;51.550;7.980;2022-11-02T01:25:19;12.40;99.90
18823;DHT22;9540;51.550;7.980;2022-11-02T01:27:46;12.10;99.90
18823;DHT22;9540;51.550;7.980;2022-11-02T01:30:13;12.00;99.90
18823;DHT22;9540;51.550;7.980;2022-11-02T01:32:40;12.00;99.90
18823;DHT22;9540;51.550;7.980;2022-11-02T01:35:08;11.90;99.90
18823;DHT22;9540;51.550;7.980;2022-11-02T01:37:36;11.90;99.90
18823;DHT22;9540;51.550;7.980;2022-11-02T01:40:05;12.00;99.90
18823;DHT22;9540;51.550;7.980;2022-11-02T01:42:32;12.10;99.90
18823;DHT22;9540;51.550;7.980;2022-11-02T01:44:59;12.10;99.90
18823;DHT22;9540;51.550;7.980;2022-11-02T01:47:30;12.10;99.90
18823;DHT22;9540;51.550;7.980;2022-11-02T01:50:03;12.10;99.90
18823;DHT22;9540;51.550;7.980;2022-11-02T01:52:34;12.20;99.90
18823;DHT22;9540;51.550;7.980;2022-11-02T01:55:08;12.20;99.90
18823;DHT22;9540;51.550;7.980;2022-11-02T01:57:37;12.30;99.90
18823;DHT22;9540;51.550;7.980;2022-11-02T02:00:07;12.30;99.90
18823;DHT22;9540;51.550;7.980;2022-11-02T02:02:46;12.40;99.90
18823;DHT22;9540;51.550;7.980;2022-11-02T02:05:15;12.30;99.90
18823;DHT22;9540;51.550;7.980;2022-11-02T02:07:43;12.20;99.90
18823;DHT22;9540;51.550;7.980;2022-11-02T02:10:12;12.20;99.90
18823;DHT22;9540;51.550;7.980;2022-11-02T02:12:41;12.20;99.90
18823;DHT22;9540;51.550;7.980;2022-11-02T02:15:09;12.10;99.90
18823;DHT22;9540;51.550;7.980;2022-11-02T02:17:42;12.00;99.90
18823;DHT22;9540;51.550;7.980;2022-11-02T02:20:19;12.00;99.90
18823;DHT22;9540;51.550;7.980;2022-11-02T02:26:13;11.90;99.90
18823;DHT22;9540;51.550;7.980;2022-11-02T02:28:50;11.90;99.90
18823;DHT22;9540;51.550;7.980;2022-11-02T02:31:24;11.80;99.90
18823;DHT22;9540;51.550;7.980;2022-11-02T02:33:59;11.70;99.90
18823;DHT22;9540;51.550;7.980;2022-11-02T02:36:33;11.60;99.90
18823;DHT22;9540;51.550;7.980;2022-11-02T02:39:04;11.60;99.90
18823;DHT22;9540;51.550;7.980;2022-11-02T02:41:37;11.60;99.90
18823;DHT22;9540;51.550;7.980;2022-11-02T02:44:08;11.80;99.90
18823;DHT22;9540;51.550;7.980;2022-11-02T02:46:41;11.90;99.90
18823;DHT22;9540;51.550;7.980;2022-11-02T02:49:22;11.90;99.90
18823;DHT22;9540;51.550;7.980;2022-11-02T02:51:52;12.00;99.90
18823;DHT22;9540;51.550;7.980;2022-11-02T02:54:30;12.10;99.90
18823;DHT22;9540;51.550;7.980;2022-11-02T02:57:11;12.20;99.90
18823;DHT22;9540;51.550;7.980;2022-11-02T02:59:49;12.20;99.90
18823;DHT22;9540;51.550;7.980;2022-11-02T03:02:31;12.20;99.90
18823;DHT22;9540;51.550;7.980;2022-11-02T03:04:59;12.30;99.90
18823;DHT22;9540;51.550;7.980;2022-11-02T03:07:35;12.20;99.90
18823;DHT22;9540;51.550;7.980;2022-11-02T03:10:24;12.20;99.90
18823;DHT22;9540;51.550;7.980;2022-11-02T03:13:12;12.20;99.90
18823;DHT22;9540;51.550;7.980;2022-11-02T03:15:52;12.20;99.90
18823;DHT22;9540;51.550;7.980;2022-11-02T03:18:27;12.10;99.90
18823;DHT22;9540;51.550;7.980;2022-11-02T03:21:05;12.00;99.90
18823;DHT22;9540;51.550;7.980;2022-11-02T03:23:38;12.00;99.90
18823;DHT22;9540;51.550;7.980;2022-11-02T03:26:11;11.90;99.90
18823;DHT22;9540;51.550;7.980;2022-11-02T03:28:55;11.90;99.90
18823;DHT22;9540;51.550;7.980;2022-11-02T03:31:33;11.80;99.90
18823;DHT22;9540;51.550;7.980;2022-11-02T03:34:10;11.80;99.90
18823;DHT22;9540;51.550;7.980;2022-11-02T03:36:50;11.90;99.90
18823;DHT22;9540;51.550;7.980;2022-11-02T03:39:21;11.90;99.90
18823;DHT22;9540;51.550;7.980;2022-11-02T03:41:51;11.80;99.90
18823;DHT22;9540;51.550;7.980;2022-11-02T03:44:29;11.70;99.90
18823;DHT22;9540;51.550;7.980;2022-11-02T03:47:02;11.70;99.90
18823;DHT22;9540;51.550;7.980;2022-11-02T03:49:32;11.60;99.90
18823;DHT22;9540;51.550;7.980;2022-11-02T03:52:09;11.50;99.90
18823;DHT22;9540;51.550;7.980;2022-11-02T03:54:46;11.50;99.90
18823;DHT22;9540;51.550;7.980;2022-11-02T03:57:18;11.50;99.90
18823;DHT22;9540;51.550;7.980;2022-11-02T03:59:45;11.50;99.90
18823;DHT22;9540;51.550;7.980;2022-11-02T04:02:14;11.60;99.90
18823;DHT22;9540;51.550;7.980;2022-11-02T04:04:48;11.60;99.90
18823;DHT22;9540;51.550;7.980;2022-11-02T04:07:18;11.60;99.90
18823;DHT22;9540;51.550;7.980;2022-11-02T04:09:46;11.50;99.90
18823;DHT22;9540;51.550;7.980;2022-11-02T04:12:13;11.60;99.90
18823;DHT22;9540;51.550;7.980;2022-11-02T04:14:58;11.60;99.90
18823;DHT22;9540;51.550;7.980;2022-11-02T04:17:27;11.70;99.90
18823;DHT22;9540;51.550;7.980;2022-11-02T04:20:11;11.70;99.90
18823;DHT22;9540;51.550;7.980;2022-11-02T04:22:38;11.70;99.90
18823;DHT22;9540;51.550;7.980;2022-11-02T04:25:23;11.60;99.90
18823;DHT22;9540;51.550;7.980;2022-11-02T04:27:52;11.50;99.90
18823;DHT22;9540;51.550;7.980;2022-11-02T04:30:21;11.60;99.90
18823;DHT22;9540;51.550;7.980;2022-11-02T04:32:50;11.60;99.90
18823;DHT22;9540;51.550;7.980;2022-11-02T04:35:35;11.50;99.90
18823;DHT22;9540;51.550;7.980;2022-11-02T04:38:02;11.50;99.90
18823;DHT22;9540;51.550;7.980;2022-11-02T04:40:47;11.50;99.90
18823;DHT22;9540;51.550;7.980;2022-11-02T04:43:34;11.40;99.90
18823;DHT22;9540;51.550;7.980;2022-11-02T04:46:01;11.30;99.90
18823;DHT22;9540;51.550;7.980;2022-11-02T04:48:30;11.30;99.90
18823;DHT22;9540;51.550;7.980;2022-11-02T04:50:57;11.30;99.90
18823;DHT22;9540;51.550;7.980;2022-11-02T04:53:24;11.30;99.90
18823;DHT22;9540;51.550;7.980;2022-11-02T04:55:51;11.20;99.90
18823;DHT22;9540;51.550;7.980;2022-11-02T04:58:18;11.30;99.90
18823;DHT22;9540;51.550;7.980;2022-11-02T05:00:45;11.30;99.90
18823;DHT22;9540;51.550;7.980;2022-11-02T05:03:13;11.20;99.90
18823;DHT22;9540;51.550;7.980;2022-11-02T05:05:41;11.20;99.90
18823;DHT22;9540;51.550;7.980;2022-11-02T05:08:08;11.20;99.90
18823;DHT22;9540;51.550;7.980;2022-11-02T05:10:36;11.10;99.90
18823;DHT22;9540;51.550;7.980;2022-11-02T05:13:03;11.20;99.90
18823;DHT22;9540;51.550;7.980;2022-11-02T05:15:30;11.20;99.90
18823;DHT22;9540;51.550;7.980;2022-11-02T05:17:57;11.20;99.90
18823;DHT22;9540;51.550;7.980;2022-11-02T05:20:27;11.20;99.90
18823;DHT22;9540;51.550;7.980;2022-11-02T05:22:56;11.30;99.90
18823;DHT22;9540;51.550;7.980;2022-11-02T05:25:23;11.30;99.90
18823;DHT22;9540;51.550;7.980;2022-11-02T05:27:50;11.30;99.90
18823;DHT22;9540;51.550;7.980;2022-11-02T05:30:17;11.30;99.90
18823;DHT22;9540;51.550;7.980;2022-11-02T05:32:44;11.30;99.90
18823;DHT22;9540;51.550;7.980;2022-11-02T05:35:11;11.30;99.90
18823;DHT22;9540;51.550;7.980;2022-11-02T05:37:39;11.30;99.90
18823;DHT22;9540;51.550;7.980;2022-11-02T05:40:08;11.30;99.90
18823;DHT22;9540;51.550;7.980;2022-11-02T05:42:36;11.20;99.90
18823;DHT22;9540;51.550;7.980;2022-11-02T05:45:03;11.20;99.90
18823;DHT22;9540;51.550;7.980;2022-11-02T05:47:32;11.20;99.90
18823;DHT22;9540;51.550;7.980;2022-11-02T05:49:59;11.20;99.90
18823;DHT22;9540;51.550;7.980;2022-11-02T05:52:26;11.30;99.90
18823;DHT22;9540;51.550;7.980;2022-11-02T05:54:53;11.30;99.90
18823;DHT22;9540;51.550;7.980;2022-11-02T05:57:21;11.40;99.90
18823;DHT22;9540;51.550;7.980;2022-11-02T05:59:49;11.40;99.90
18823;DHT22;9540;51.550;7.980;2022-11-02T06:02:16;11.50;99.90
18823;DHT22;9540;51.550;7.980;2022-11-02T06:04:43;11.50;99.90
18823;DHT22;9540;51.550;7.980;2022-11-02T06:07:10;11.60;99.90
18823;DHT22;9540;51.550;7.980;2022-11-02T06:09:37;11.60;99.90
18823;DHT22;9540;51.550;7.980;2022-11-02T06:12:05;11.60;99.90
18823;DHT22;9540;51.550;7.980;2022-11-02T06:14:34;11.60;99.90
18823;DHT22;9540;51.550;7.980;2022-11-02T06:17:01;11.60;99.90
18823;DHT22;9540;51.550;7.980;2022-11-02T06:19:28;11.60;99.90
18823;DHT22;9540;51.550;7.980;2022-11-02T06:21:55;11.60;99.90
18823;DHT22;9540;51.550;7.980;2022-11-02T06:24:22;11.70;99.90
18823;DHT22;9540;51.550;7.980;2022-11-02T06:26:50;11.70;99.90
18823;DHT22;9540;51.550;7.980;2022-11-02T06:29:18;11.70;99.90
18823;DHT22;9540;51.550;7.980;2022-11-02T06:31:47;11.70;99.90
18823;DHT22;9540;51.550;7.980;2022-11-02T06:34:14;11.70;99.90
18823;DHT22;9540;51.550;7.980;2022-11-02T06:36:41;11.70;99.90
18823;DHT22;9540;51.550;7.980;2022-11-02T06:39:08;11.70;99.90
18823;DHT22;9540;51.550;7.980;2022-11-02T06:41:35;11.60;99.90
18823;DHT22;9540;51.550;7.980;2022-11-02T06:44:02;11.60;99.90
18823;DHT22;9540;51.550;7.980;2022-11-02T06:46:30;11.60;99.90
18823;DHT22;9540;51.550;7.980;2022-11-02T06:48:58;11.60;99.90
18823;DHT22;9540;51.550;7.980;2022-11-02T06:51:25;11.60;99.90
18823;DHT22;9540;51.550;7.980;2022-11-02T06:53:52;11.60;99.90
18823;DHT22;9540;51.550;7.980;2022-11-02T06:56:26;11.60;99.90
18823;DHT22;9540;51.550;7.980;2022-11-02T06:58:53;11.60;99.90
18823;DHT22;9540;51.550;7.980;2022-11-02T07:01:20;11.60;99.90
18823;DHT22;9540;51.550;7.980;2022-11-02T07:03:47;11.60;99.90
18823;DHT22;9540;51.550;7.980;2022-11-02T07:06:15;11.70;99.90
18823;DHT22;9540;51.550;7.980;2022-11-02T07:08:43;11.70;99.90
18823;DHT22;9540;51.550;7.980;2022-11-02T07:11:12;11.70;99.90
18823;DHT22;9540;51.550;7.980;2022-11-02T07:13:40;11.70;99.90
18823;DHT22;9540;51.550;7.980;2022-11-02T07:16:07;11.80;99.90
18823;DHT22;9540;51.550;7.980;2022-11-02T07:18:34;11.90;99.90
18823;DHT22;9540;51.550;7.980;2022-11-02T07:21:01;12.10;99.90
18823;DHT22;9540;51.550;7.980;2022-11-02T07:23:30;12.30;99.90
18823;DHT22;9540;51.550;7.980;2022-11-02T07:25:59;12.50;99.90
18823;DHT22;9540;51.550;7.980;2022-11-02T07:28:26;12.60;99.90
18823;DHT22;9540;51.550;7.980;2022-11-02T07:30:54;12.70;99.90
18823;DHT22;9540;51.550;7.980;2022-11-02T07:33:21;12.60;99.90
18823;DHT22;9540;51.550;7.980;2022-11-02T07:35:48;12.60;99.90
18823;DHT22;9540;51.550;7.980;2022-11-02T07:38:15;12.50;99.90
18823;DHT22;9540;51.550;7.980;2022-11-02T07:40:47;12.40;99.90
18823;DHT22;9540;51.550;7.980;2022-11-02T07:43:15;12.40;99.90
18823;DHT22;9540;51.550;7.980;2022-11-02T07:45:42;12.40;99.90
18823;DHT22;9540;51.550;7.980;2022-11-02T07:48:09;12.50;99.90
18823;DHT22;9540;51.550;7.980;2022-11-02T07:50:36;12.50;99.90
18823;DHT22;9540;51.550;7.980;2022-11-02T07:53:03;12.50;99.90
18823;DHT22;9540;51.550;7.980;2022-11-02T07:55:31;12.60;99.90
18823;DHT22;9540;51.550;7.980;2022-11-02T07:58:01;12.80;99.90
18823;DHT22;9540;51.550;7.980;2022-11-02T08:00:30;13.00;99.90
18823;DHT22;9540;51.550;7.980;2022-11-02T08:02:58;13.20;99.90
18823;DHT22;9540;51.550;7.980;2022-11-02T08:05:27;13.30;99.90
18823;DHT22;9540;51.550;7.980;2022-11-02T08:07:58;13.30;99.90
18823;DHT22;9540;51.550;7.980;2022-11-02T08:10:26;13.60;99.90
18823;DHT22;9540;51.550;7.980;2022-11-02T08:12:54;13.60;99.90
18823;DHT22;9540;51.550;7.980;2022-11-02T08:15:22;13.50;99.90
18823;DHT22;9540;51.550;7.980;2022-11-02T08:17:59;13.80;99.90
18823;DHT22;9540;51.550;7.980;2022-11-02T08:20:26;13.80;99.90
18823;DHT22;9540;51.550;7.980;2022-11-02T08:22:53;13.50;99.90
18823;DHT22;9540;51.550;7.980;2022-11-02T08:25:21;13.40;99.90
18823;DHT22;9540;51.550;7.980;2022-11-02T08:27:48;13.20;99.90
18823;DHT22;9540;51.550;7.980;2022-11-02T08:30:16;13.10;99.90
18823;DHT22;9540;51.550;7.980;2022-11-02T08:32:54;13.10;99.90
18823;DHT22;9540;51.550;7.980;2022-11-02T08:35:22;13.60;99.90
18823;DHT22;9540;51.550;7.980;2022-11-02T08:37:56;13.70;99.90
18823;DHT22;9540;51.550;7.980;2022-11-02T08:40:25;13.70;99.90
18823;DHT22;9540;51.550;7.980;2022-11-02T08:42:55;13.70;99.90
18823;DHT22;9540;51.550;7.980;2022-11-02T08:45:22;14.30;99.90
18823;DHT22;9540;51.550;7.980;2022-11-02T08:47:49;15.10;99.90
18823;DHT22;9540;51.550;7.980;2022-11-02T08:50:21;15.80;99.90
18823;DHT22;9540;51.550;7.980;2022-11-02T08:52:48;16.00;99.90
18823;DHT22;9540;51.550;7.980;2022-11-02T08:55:17;15.70;99.90
18823;DHT22;9540;51.550;7.980;2022-11-02T08:57:45;15.90;99.90
18823;DHT22;9540;51.550;7.980;2022-11-02T09:00:13;15.90;99.90
18823;DHT22;9540;51.550;7.980;2022-11-02T09:02:40;15.80;99.90
18823;DHT22;9540;51.550;7.980;2022-11-02T09:05:09;15.50;99.90
18823;DHT22;9540;51.550;7.980;2022-11-02T09:07:37;15.30;99.90
18823;DHT22;9540;51.550;7.980;2022-11-02T09:10:05;15.00;99.90
18823;DHT22;9540;51.550;7.980;2022-11-02T09:12:34;14.80;99.90
18823;DHT22;9540;51.550;7.980;2022-11-02T09:15:01;14.30;99.90
18823;DHT22;9540;51.550;7.980;2022-11-02T09:17:28;14.50;99.90
18823;DHT22;9540;51.550;7.980;2022-11-02T09:19:55;14.40;99.90
18823;DHT22;9540;51.550;7.980;2022-11-02T09:22:26;14.00;99.90
18823;DHT22;9540;51.550;7.980;2022-11-02T09:24:54;13.60;99.90
18823;DHT22;9540;51.550;7.980;2022-11-02T09:27:21;13.30;99.90
18823;DHT22;9540;51.550;7.980;2022-11-02T09:29:48;13.20;99.90
18823;DHT22;9540;51.550;7.980;2022-11-02T09:32:15;13.10;99.90
18823;DHT22;9540;51.550;7.980;2022-11-02T09:34:43;13.10;99.90
18823;DHT22;9540;51.550;7.980;2022-11-02T09:37:12;13.10;99.90
18823;DHT22;9540;51.550;7.980;2022-11-02T09:39:39;12.90;99.90
18823;DHT22;9540;51.550;7.980;2022-11-02T09:42:18;12.70;99.90
18823;DHT22;9540;51.550;7.980;2022-11-02T09:44:48;12.70;99.90
18823;DHT22;9540;51.550;7.980;2022-11-02T09:47:17;12.60;99.90
18823;DHT22;9540;51.550;7.980;2022-11-02T09:49:45;12.50;99.90
18823;DHT22;9540;51.550;7.980;2022-11-02T09:52:17;12.50;99.90
18823;DHT22;9540;51.550;7.980;2022-11-02T09:54:48;12.80;99.90
18823;DHT22;9540;51.550;7.980;2022-11-02T09:57:27;12.90;99.90
18823;DHT22;9540;51.550;7.980;2022-11-02T09:59:55;12.90;99.90
18823;DHT22;9540;51.550;7.980;2022-11-02T10:02:30;13.10;99.90
18823;DHT22;9540;51.550;7.980;2022-11-02T10:05:12;13.20;99.90
18823;DHT22;9540;51.550;7.980;2022-11-02T10:07:57;13.40;99.90
18823;DHT22;9540;51.550;7.980;2022-11-02T10:10:32;13.70;99.90
18823;DHT22;9540;51.550;7.980;2022-11-02T10:13:11;13.90;99.90
18823;DHT22;9540;51.550;7.980;2022-11-02T10:15:46;14.10;99.90
18823;DHT22;9540;51.550;7.980;2022-11-02T10:18:18;14.20;99.90
18823;DHT22;9540;51.550;7.980;2022-11-02T10:20:48;14.00;99.90
18823;DHT22;9540;51.550;7.980;2022-11-02T10:23:23;14.00;99.90
18823;DHT22;9540;51.550;7.980;2022-11-02T10:25:51;13.90;99.90
18823;DHT22;9540;51.550;7.980;2022-11-02T10:28:24;13.90;99.90
18823;DHT22;9540;51.550;7.980;2022-11-02T10:30:52;14.10;99.90
18823;DHT22;9540;51.550;7.980;2022-11-02T10:33:24;14.40;99.90
18823;DHT22;9540;51.550;7.980;2022-11-02T10:36:03;14.80;99.90
18823;DHT22;9540;51.550;7.980;2022-11-02T10:38:47;15.20;99.90
18823;DHT22;9540;51.550;7.980;2022-11-02T10:41:27;15.10;99.90
18823;DHT22;9540;51.550;7.980;2022-11-02T10:44:16;15.00;99.90
18823;DHT22;9540;51.550;7.980;2022-11-02T10:47:02;15.10;99.90
18823;DHT22;9540;51.550;7.980;2022-11-02T10:49:53;15.00;99.90
18823;DHT22;9540;51.550;7.980;2022-11-02T10:52:25;14.80;99.90
18823;DHT22;9540;51.550;7.980;2022-11-02T10:54:56;14.60;99.90
18823;DHT22;9540;51.550;7.980;2022-11-02T10:57:24;14.80;99.90
18823;DHT22;9540;51.550;7.980;2022-11-02T11:00:25;15.00;99.90
18823;DHT22;9540;51.550;7.980;2022-11-02T11:03:07;15.20;99.90
18823;DHT22;9540;51.550;7.980;2022-11-02T11:05:37;15.40;99.90
18823;DHT22;9540;51.550;7.980;2022-11-02T11:08:05;15.40;99.90
18823;DHT22;9540;51.550;7.980;2022-11-02T11:10:36;15.20;99.90
18823;DHT22;9540;51.550;7.980;2022-11-02T11:13:04;15.20;99.90
18823;DHT22;9540;51.550;7.980;2022-11-02T11:15:35;15.00;99.90
18823;DHT22;9540;51.550;7.980;2022-11-02T11:18:11;14.90;99.90
18823;DHT22;9540;51.550;7.980;2022-11-02T11:20:40;14.80;99.90
18823;DHT22;9540;51.550;7.980;2022-11-02T11:23:17;14.70;99.90
18823;DHT22;9540;51.550;7.980;2022-11-02T11:25:56;14.60;99.90
18823;DHT22;9540;51.550;7.980;2022-11-02T11:28:26;14.40;99.90
18823;DHT22;9540;51.550;7.980;2022-11-02T11:31:08;14.30;99.90
18823;DHT22;9540;51.550;7.980;2022-11-02T11:33:45;14.50;99.90
18823;DHT22;9540;51.550;7.980;2022-11-02T11:36:24;14.50;99.90
18823;DHT22;9540;51.550;7.980;2022-11-02T11:38:54;14.20;99.90
18823;DHT22;9540;51.550;7.980;2022-11-02T11:41:22;14.00;99.90
18823;DHT22;9540;51.550;7.980;2022-11-02T11:43:50;14.20;99.90
18823;DHT22;9540;51.550;7.980;2022-11-02T11:46:23;14.30;99.90
18823;DHT22;9540;51.550;7.980;2022-11-02T11:49:04;14.30;99.90
18823;DHT22;9540;51.550;7.980;2022-11-02T11:51:35;14.20;99.90
18823;DHT22;9540;51.550;7.980;2022-11-02T11:54:05;14.20;99.90
18823;DHT22;9540;51.550;7.980;2022-11-02T11:56:33;14.30;99.90
18823;DHT22;9540;51.550;7.980;2022-11-02T11:59:01;14.60;99.90
18823;DHT22;9540;51.550;7.980;2022-11-02T12:01:37;15.10;99.90
18823;DHT22;9540;51.550;7.980;2022-11-02T12:04:04;15.30;99.90
18823;DHT22;9540;51.550;7.980;2022-11-02T12:06:39;15.20;99.90
18823;DHT22;9540;51.550;7.980;2022-11-02T12:09:15;15.20;99.90
18823;DHT22;9540;51.550;7.980;2022-11-02T12:11:52;15.50;99.90
18823;DHT22;9540;51.550;7.980;2022-11-02T12:14:40;15.90;99.90
18823;DHT22;9540;51.550;7.980;2022-11-02T12:17:23;15.90;99.90
18823;DHT22;9540;51.550;7.980;2022-11-02T12:19:59;15.70;99.90
18823;DHT22;9540;51.550;7.980;2022-11-02T12:22:36;15.50;99.90
18823;DHT22;9540;51.550;7.980;2022-11-02T12:25:24;15.30;99.90
18823;DHT22;9540;51.550;7.980;2022-11-02T12:27:59;15.00;99.90
18823;DHT22;9540;51.550;7.980;2022-11-02T12:30:35;14.90;99.90
18823;DHT22;9540;51.550;7.980;2022-11-02T12:33:28;14.90;99.90
18823;DHT22;9540;51.550;7.980;2022-11-02T12:36:15;14.60;99.90
18823;DHT22;9540;51.550;7.980;2022-11-02T12:38:59;14.50;99.90
18823;DHT22;9540;51.550;7.980;2022-11-02T12:44:45;14.50;99.90
18823;DHT22;9540;51.550;7.980;2022-11-02T12:47:24;14.50;99.90
18823;DHT22;9540;51.550;7.980;2022-11-02T12:50:03;14.50;99.90
18823;DHT22;9540;51.550;7.980;2022-11-02T12:52:44;14.60;99.90
18823;DHT22;9540;51.550;7.980;2022-11-02T12:55:16;14.50;99.90
18823;DHT22;9540;51.550;7.980;2022-11-02T12:57:45;14.50;99.90
18823;DHT22;9540;51.550;7.980;2022-11-02T13:00:18;14.40;99.90
18823;DHT22;9540;51.550;7.980;2022-11-02T13:02:52;14.30;99.90
18823;DHT22;9540;51.550;7.980;2022-11-02T13:05:27;14.20;99.90
18823;DHT22;9540;51.550;7.980;2022-11-02T13:08:03;14.30;99.90
18823;DHT22;9540;51.550;7.980;2022-11-02T13:10:37;14.30;99.90
18823;DHT22;9540;51.550;7.980;2022-11-02T13:13:14;14.30;99.90
18823;DHT22;9540;51.550;7.980;2022-11-02T13:15:45;14.40;99.90
18823;DHT22;9540;51.550;7.980;2022-11-02T13:18:16;14.40;99.90
18823;DHT22;9540;51.550;7.980;2022-11-02T13:20:49;14.50;99.90
18823;DHT22;9540;51.550;7.980;2022-11-02T13:23:25;14.60;99.90
18823;DHT22;9540;51.550;7.980;2022-11-02T13:25:57;14.60;99.90
18823;DHT22;9540;51.550;7.980;2022-11-02T13:28:31;14.60;99.90
18823;DHT22;9540;51.550;7.980;2022-11-02T13:31:00;14.70;99.90
18823;DHT22;9540;51.550;7.980;2022-11-02T13:33:35;14.80;99.90
18823;DHT22;9540;51.550;7.980;2022-11-02T13:36:05;14.80;99.90
18823;DHT22;9540;51.550;7.980;2022-11-02T13:38:34;14.80;99.90
18823;DHT22;9540;51.550;7.980;2022-11-02T13:41:38;15.00;99.90
18823;DHT22;9540;51.550;7.980;2022-11-02T13:47:23;15.00;99.90
18823;DHT22;9540;51.550;7.980;2022-11-02T13:49:56;14.80;99.90
18823;DHT22;9540;51.550;7.980;2022-11-02T13:52:34;14.80;99.90
18823;DHT22;9540;51.550;7.980;2022-11-02T13:55:04;14.90;99.90
18823;DHT22;9540;51.550;7.980;2022-11-02T13:57:35;15.00;99.90
18823;DHT22;9540;51.550;7.980;2022-11-02T14:00:09;15.10;99.90
18823;DHT22;9540;51.550;7.980;2022-11-02T14:02:56;15.10;99.90
18823;DHT22;9540;51.550;7.980;2022-11-02T14:05:28;15.00;99.90
18823;DHT22;9540;51.550;7.980;2022-11-02T14:08:01;15.00;99.90
18823;DHT22;9540;51.550;7.980;2022-11-02T14:10:30;15.00;99.90
18823;DHT22;9540;51.550;7.980;2022-11-02T14:12:59;15.00;99.90
18823;DHT22;9540;51.550;7.980;2022-11-02T14:15:51;15.00;99.90
18823;DHT22;9540;51.550;7.980;2022-11-02T14:18:29;15.00;99.90
18823;DHT22;9540;51.550;7.980;2022-11-02T14:20:56;14.90;99.90
18823;DHT22;9540;51.550;7.980;2022-11-02T14:23:37;14.90;99.90
18823;DHT22;9540;51.550;7.980;2022-11-02T14:26:07;14.80;99.90
18823;DHT22;9540;51.550;7.980;2022-11-02T14:28:51;14.70;99.90
18823;DHT22;9540;51.550;7.980;2022-11-02T14:31:38;14.40;99.90
18823;DHT22;9540;51.550;7.980;2022-11-02T14:34:30;14.10;99.90
18823;DHT22;9540;51.550;7.980;2022-11-02T14:37:19;13.90;99.90
18823;DHT22;9540;51.550;7.980;2022-11-02T14:40:00;13.80;99.90
18823;DHT22;9540;51.550;7.980;2022-11-02T14:45:41;13.80;99.90
18823;DHT22;9540;51.550;7.980;2022-11-02T14:48:13;13.90;99.90
18823;DHT22;9540;51.550;7.980;2022-11-02T14:50:42;13.90;99.90
18823;DHT22;9540;51.550;7.980;2022-11-02T14:53:19;13.90;99.90
18823;DHT22;9540;51.550;7.980;2022-11-02T14:55:54;13.90;99.90
18823;DHT22;9540;51.550;7.980;2022-11-02T14:58:23;13.80;99.90
18823;DHT22;9540;51.550;7.980;2022-11-02T15:00:57;13.70;99.90
18823;DHT22;9540;51.550;7.980;2022-11-02T15:03:32;13.60;99.90
18823;DHT22;9540;51.550;7.980;2022-11-02T15:06:05;13.50;99.90
18823;DHT22;9540;51.550;7.980;2022-11-02T15:08:35;13.40;99.90
18823;DHT22;9540;51.550;7.980;2022-11-02T15:14:30;13.00;99.90
18823;DHT22;9540;51.550;7.980;2022-11-02T15:16:58;12.80;99.90
18823;DHT22;9540;51.550;7.980;2022-11-02T15:19:39;12.60;99.90
18823;DHT22;9540;51.550;7.980;2022-11-02T15:25:00;12.40;99.90
18823;DHT22;9540;51.550;7.980;2022-11-02T15:27:29;12.30;99.90
18823;DHT22;9540;51.550;7.980;2022-11-02T15:29:59;12.20;99.90
18823;DHT22;9540;51.550;7.980;2022-11-02T15:32:28;12.00;99.90
18823;DHT22;9540;51.550;7.980;2022-11-02T15:34:57;11.90;99.90
18823;DHT22;9540;51.550;7.980;2022-11-02T15:37:26;11.70;99.90
18823;DHT22;9540;51.550;7.980;2022-11-02T15:39:56;11.60;99.90
18823;DHT22;9540;51.550;7.980;2022-11-02T15:42:35;11.40;99.90
18823;DHT22;9540;51.550;7.980;2022-11-02T15:45:25;11.30;99.90
18823;DHT22;9540;51.550;7.980;2022-11-02T15:48:02;11.10;99.90
18823;DHT22;9540;51.550;7.980;2022-11-02T15:50:43;10.90;99.90
18823;DHT22;9540;51.550;7.980;2022-11-02T15:53:26;10.70;99.90
18823;DHT22;9540;51.550;7.980;2022-11-02T15:59:18;10.50;99.90
18823;DHT22;9540;51.550;7.980;2022-11-02T16:02:01;10.30;99.90
18823;DHT22;9540;51.550;7.980;2022-11-02T16:04:35;10.20;99.90
18823;DHT22;9540;51.550;7.980;2022-11-02T16:07:03;10.10;99.90
18823;DHT22;9540;51.550;7.980;2022-11-02T16:09:33;9.90;99.90
18823;DHT22;9540;51.550;7.980;2022-11-02T16:12:02;9.80;99.90
18823;DHT22;9540;51.550;7.980;2022-11-02T16:14:29;9.70;99.90
18823;DHT22;9540;51.550;7.980;2022-11-02T16:16:58;9.50;99.90
18823;DHT22;9540;51.550;7.980;2022-11-02T16:19:25;9.40;99.90
18823;DHT22;9540;51.550;7.980;2022-11-02T16:21:52;9.30;99.90
18823;DHT22;9540;51.550;7.980;2022-11-02T16:24:19;9.20;99.90
18823;DHT22;9540;51.550;7.980;2022-11-02T16:26:47;9.20;99.90
18823;DHT22;9540;51.550;7.980;2022-11-02T16:29:23;9.10;99.90
18823;DHT22;9540;51.550;7.980;2022-11-02T16:31:52;9.00;99.90
18823;DHT22;9540;51.550;7.980;2022-11-02T16:34:23;8.90;99.90
18823;DHT22;9540;51.550;7.980;2022-11-02T16:36:51;8.80;99.90
18823;DHT22;9540;51.550;7.980;2022-11-02T16:39:23;8.70;99.90